sensor_id;sensor_type;location;lat;lon;timestamp;P1;durP1;ratioP1;P2;durP2;ratioP2
9997;SDS011;5038;53.064;8.624;2022-07-23T00:01:02;6.47;;;4.10;;
9997;SDS011;5038;53.064;8.624;2022-07-23T00:03:31;5.37;;;3.80;;
9997;SDS011;5038;53.064;8.624;2022-07-23T00:06:00;5.40;;;4.33;;
9997;SDS011;5038;53.064;8.624;2022-07-23T00:08:35;3.90;;;3.50;;
9997;SDS011;5038;53.064;8.624;2022-07-23T00:11:03;4.93;;;4.40;;
9997;SDS011;5038;53.064;8.624;2022-07-23T00:13:32;5.00;;;4.27;;
9997;SDS011;5038;53.064;8.624;2022-07-23T00:16:00;4.70;;;4.30;;
9997;SDS011;5038;53.064;8.624;2022-07-23T00:18:28;5.70;;;4.80;;
9997;SDS011;5038;53.064;8.624;2022-07-23T00:20:56;5.07;;;4.57;;
9997;SDS011;5038;53.064;8.624;2022-07-23T00:23:26;5.23;;;4.73;;
9997;SDS011;5038;53.064;8.624;2022-07-23T00:25:55;6.90;;;5.00;;
9997;SDS011;5038;53.064;8.624;2022-07-23T00:28:23;5.03;;;4.07;;
9997;SDS011;5038;53.064;8.624;2022-07-23T00:30:51;5.60;;;4.80;;
9997;SDS011;5038;53.064;8.624;2022-07-23T00:33:20;5.90;;;5.27;;
9997;SDS011;5038;53.064;8.624;2022-07-23T00:35:48;6.00;;;5.40;;
9997;SDS011;5038;53.064;8.624;2022-07-23T00:38:16;5.80;;;5.20;;
9997;SDS011;5038;53.064;8.624;2022-07-23T00:40:46;9.23;;;5.40;;
9997;SDS011;5038;53.064;8.624;2022-07-23T00:43:14;5.37;;;4.87;;
9997;SDS011;5038;53.064;8.624;2022-07-23T00:45:42;6.13;;;5.30;;
9997;SDS011;5038;53.064;8.624;2022-07-23T00:48:12;6.97;;;4.90;;
9997;SDS011;5038;53.064;8.624;2022-07-23T00:50:40;6.40;;;4.90;;
9997;SDS011;5038;53.064;8.624;2022-07-23T00:53:09;6.53;;;5.80;;
9997;SDS011;5038;53.064;8.624;2022-07-23T00:55:38;6.90;;;5.17;;
9997;SDS011;5038;53.064;8.624;2022-07-23T00:58:08;6.20;;;5.60;;
9997;SDS011;5038;53.064;8.624;2022-07-23T01:00:36;6.80;;;5.37;;
9997;SDS011;5038;53.064;8.624;2022-07-23T01:03:06;9.23;;;5.40;;
9997;SDS011;5038;53.064;8.624;2022-07-23T01:05:34;7.10;;;5.83;;
9997;SDS011;5038;53.064;8.624;2022-07-23T01:08:03;8.83;;;6.03;;
9997;SDS011;5038;53.064;8.624;2022-07-23T01:10:32;5.90;;;5.30;;
9997;SDS011;5038;53.064;8.624;2022-07-23T01:13:02;6.20;;;5.60;;
9997;SDS011;5038;53.064;8.624;2022-07-23T01:15:33;7.93;;;6.20;;
9997;SDS011;5038;53.064;8.624;2022-07-23T01:18:04;8.63;;;6.53;;
9997;SDS011;5038;53.064;8.624;2022-07-23T01:20:34;10.13;;;6.50;;
9997;SDS011;5038;53.064;8.624;2022-07-23T01:23:04;6.53;;;5.93;;
9997;SDS011;5038;53.064;8.624;2022-07-23T01:25:33;6.47;;;5.87;;
9997;SDS011;5038;53.064;8.624;2022-07-23T01:28:03;7.37;;;6.23;;
9997;SDS011;5038;53.064;8.624;2022-07-23T01:30:31;8.80;;;6.27;;
9997;SDS011;5038;53.064;8.624;2022-07-23T01:33:03;8.83;;;7.40;;
9997;SDS011;5038;53.064;8.624;2022-07-23T01:35:31;6.70;;;6.00;;
9997;SDS011;5038;53.064;8.624;2022-07-23T01:38:04;7.20;;;6.53;;
9997;SDS011;5038;53.064;8.624;2022-07-23T01:40:34;6.37;;;5.77;;
9997;SDS011;5038;53.064;8.624;2022-07-23T01:43:03;7.00;;;6.40;;
9997;SDS011;5038;53.064;8.624;2022-07-23T01:45:35;7.73;;;6.37;;
9997;SDS011;5038;53.064;8.624;2022-07-23T01:48:03;8.00;;;6.47;;
9997;SDS011;5038;53.064;8.624;2022-07-23T01:50:39;7.10;;;6.40;;
9997;SDS011;5038;53.064;8.624;2022-07-23T01:53:15;9.20;;;6.80;;
9997;SDS011;5038;53.064;8.624;2022-07-23T01:55:44;6.77;;;6.17;;
9997;SDS011;5038;53.064;8.624;2022-07-23T01:58:12;7.00;;;6.30;;
9997;SDS011;5038;53.064;8.624;2022-07-23T02:00:40;7.00;;;6.40;;
9997;SDS011;5038;53.064;8.624;2022-07-23T02:03:09;8.57;;;6.20;;
9997;SDS011;5038;53.064;8.624;2022-07-23T02:05:37;7.27;;;6.60;;
9997;SDS011;5038;53.064;8.624;2022-07-23T02:08:05;6.87;;;6.10;;
9997;SDS011;5038;53.064;8.624;2022-07-23T02:10:37;10.43;;;6.70;;
9997;SDS011;5038;53.064;8.624;2022-07-23T02:13:05;9.07;;;6.50;;
9997;SDS011;5038;53.064;8.624;2022-07-23T02:15:33;6.73;;;6.10;;
9997;SDS011;5038;53.064;8.624;2022-07-23T02:18:02;6.57;;;5.97;;
9997;SDS011;5038;53.064;8.624;2022-07-23T02:20:31;8.30;;;7.17;;
9997;SDS011;5038;53.064;8.624;2022-07-23T02:22:59;6.83;;;5.90;;
9997;SDS011;5038;53.064;8.624;2022-07-23T02:25:28;7.00;;;6.13;;
9997;SDS011;5038;53.064;8.624;2022-07-23T02:28:01;10.10;;;6.37;;
9997;SDS011;5038;53.064;8.624;2022-07-23T02:30:30;7.30;;;6.60;;
9997;SDS011;5038;53.064;8.624;2022-07-23T02:33:00;8.03;;;6.77;;
9997;SDS011;5038;53.064;8.624;2022-07-23T02:35:29;7.13;;;6.53;;
9997;SDS011;5038;53.064;8.624;2022-07-23T02:38:00;6.77;;;6.00;;
9997;SDS011;5038;53.064;8.624;2022-07-23T02:40:30;7.50;;;6.70;;
9997;SDS011;5038;53.064;8.624;2022-07-23T02:42:58;7.93;;;7.13;;
9997;SDS011;5038;53.064;8.624;2022-07-23T02:45:29;6.87;;;6.23;;
9997;SDS011;5038;53.064;8.624;2022-07-23T02:47:57;8.93;;;6.20;;
9997;SDS011;5038;53.064;8.624;2022-07-23T02:50:26;9.23;;;7.47;;
9997;SDS011;5038;53.064;8.624;2022-07-23T02:52:56;6.87;;;6.17;;
9997;SDS011;5038;53.064;8.624;2022-07-23T02:55:25;9.10;;;6.40;;
9997;SDS011;5038;53.064;8.624;2022-07-23T02:57:53;6.70;;;5.53;;
9997;SDS011;5038;53.064;8.624;2022-07-23T03:00:22;8.17;;;7.47;;
9997;SDS011;5038;53.064;8.624;2022-07-23T03:02:53;6.57;;;5.87;;
9997;SDS011;5038;53.064;8.624;2022-07-23T03:05:21;6.27;;;5.70;;
9997;SDS011;5038;53.064;8.624;2022-07-23T03:07:49;8.07;;;6.10;;
9997;SDS011;5038;53.064;8.624;2022-07-23T03:10:19;6.47;;;5.87;;
9997;SDS011;5038;53.064;8.624;2022-07-23T03:12:47;7.67;;;6.77;;
9997;SDS011;5038;53.064;8.624;2022-07-23T03:15:16;6.90;;;6.30;;
9997;SDS011;5038;53.064;8.624;2022-07-23T03:17:45;7.37;;;6.77;;
9997;SDS011;5038;53.064;8.624;2022-07-23T03:20:14;7.77;;;7.13;;
9997;SDS011;5038;53.064;8.624;2022-07-23T03:22:43;7.23;;;6.07;;
9997;SDS011;5038;53.064;8.624;2022-07-23T03:25:11;10.33;;;6.40;;
9997;SDS011;5038;53.064;8.624;2022-07-23T03:27:39;6.73;;;6.13;;
9997;SDS011;5038;53.064;8.624;2022-07-23T03:30:08;8.10;;;7.20;;
9997;SDS011;5038;53.064;8.624;2022-07-23T03:32:38;7.83;;;6.50;;
9997;SDS011;5038;53.064;8.624;2022-07-23T03:35:06;9.70;;;7.27;;
9997;SDS011;5038;53.064;8.624;2022-07-23T03:37:42;7.10;;;6.20;;
9997;SDS011;5038;53.064;8.624;2022-07-23T03:40:12;7.13;;;6.40;;
9997;SDS011;5038;53.064;8.624;2022-07-23T03:42:41;8.60;;;6.73;;
9997;SDS011;5038;53.064;8.624;2022-07-23T03:45:09;8.57;;;6.73;;
9997;SDS011;5038;53.064;8.624;2022-07-23T03:47:37;7.53;;;6.27;;
9997;SDS011;5038;53.064;8.624;2022-07-23T03:50:06;11.27;;;6.77;;
9997;SDS011;5038;53.064;8.624;2022-07-23T03:52:36;9.53;;;7.20;;
9997;SDS011;5038;53.064;8.624;2022-07-23T03:55:06;9.33;;;7.13;;
9997;SDS011;5038;53.064;8.624;2022-07-23T03:57:35;8.20;;;7.07;;
9997;SDS011;5038;53.064;8.624;2022-07-23T04:00:04;10.33;;;8.00;;
9997;SDS011;5038;53.064;8.624;2022-07-23T04:02:38;9.40;;;7.93;;
9997;SDS011;5038;53.064;8.624;2022-07-23T04:05:09;9.03;;;8.17;;
9997;SDS011;5038;53.064;8.624;2022-07-23T04:07:38;9.33;;;7.80;;
9997;SDS011;5038;53.064;8.624;2022-07-23T04:10:08;10.70;;;7.50;;
9997;SDS011;5038;53.064;8.624;2022-07-23T04:12:37;9.47;;;7.97;;
9997;SDS011;5038;53.064;8.624;2022-07-23T04:15:06;10.80;;;7.33;;
9997;SDS011;5038;53.064;8.624;2022-07-23T04:17:35;9.60;;;7.97;;
9997;SDS011;5038;53.064;8.624;2022-07-23T04:20:05;7.40;;;6.70;;
9997;SDS011;5038;53.064;8.624;2022-07-23T04:22:41;9.17;;;7.57;;
9997;SDS011;5038;53.064;8.624;2022-07-23T04:25:11;10.80;;;7.97;;
9997;SDS011;5038;53.064;8.624;2022-07-23T04:27:40;8.77;;;7.90;;
9997;SDS011;5038;53.064;8.624;2022-07-23T04:30:08;10.07;;;9.07;;
9997;SDS011;5038;53.064;8.624;2022-07-23T04:32:36;9.27;;;7.73;;
9997;SDS011;5038;53.064;8.624;2022-07-23T04:35:12;10.43;;;8.83;;
9997;SDS011;5038;53.064;8.624;2022-07-23T04:37:41;7.70;;;6.97;;
9997;SDS011;5038;53.064;8.624;2022-07-23T04:40:11;9.70;;;8.77;;
9997;SDS011;5038;53.064;8.624;2022-07-23T04:42:39;8.33;;;7.47;;
9997;SDS011;5038;53.064;8.624;2022-07-23T04:45:08;8.60;;;7.80;;
9997;SDS011;5038;53.064;8.624;2022-07-23T04:47:39;8.77;;;7.67;;
9997;SDS011;5038;53.064;8.624;2022-07-23T04:50:08;11.27;;;7.40;;
9997;SDS011;5038;53.064;8.624;2022-07-23T04:52:39;8.47;;;7.50;;
9997;SDS011;5038;53.064;8.624;2022-07-23T04:55:07;10.57;;;7.93;;
9997;SDS011;5038;53.064;8.624;2022-07-23T04:57:37;9.00;;;8.10;;
9997;SDS011;5038;53.064;8.624;2022-07-23T05:00:06;9.70;;;8.37;;
9997;SDS011;5038;53.064;8.624;2022-07-23T05:02:36;8.17;;;7.37;;
9997;SDS011;5038;53.064;8.624;2022-07-23T05:05:04;9.93;;;7.97;;
9997;SDS011;5038;53.064;8.624;2022-07-23T05:07:33;9.47;;;8.47;;
9997;SDS011;5038;53.064;8.624;2022-07-23T05:10:01;13.67;;;9.17;;
9997;SDS011;5038;53.064;8.624;2022-07-23T05:12:30;8.97;;;8.13;;
9997;SDS011;5038;53.064;8.624;2022-07-23T05:15:00;9.43;;;8.63;;
9997;SDS011;5038;53.064;8.624;2022-07-23T05:17:29;10.23;;;8.40;;
9997;SDS011;5038;53.064;8.624;2022-07-23T05:19:57;12.47;;;8.23;;
9997;SDS011;5038;53.064;8.624;2022-07-23T05:22:28;9.70;;;7.40;;
9997;SDS011;5038;53.064;8.624;2022-07-23T05:24:56;8.40;;;7.60;;
9997;SDS011;5038;53.064;8.624;2022-07-23T05:27:25;8.33;;;7.53;;
9997;SDS011;5038;53.064;8.624;2022-07-23T05:29:54;8.93;;;8.03;;
9997;SDS011;5038;53.064;8.624;2022-07-23T05:32:24;7.97;;;7.27;;
9997;SDS011;5038;53.064;8.624;2022-07-23T05:35:04;8.27;;;7.57;;
9997;SDS011;5038;53.064;8.624;2022-07-23T05:37:36;8.97;;;8.00;;
9997;SDS011;5038;53.064;8.624;2022-07-23T05:40:06;7.57;;;6.87;;
9997;SDS011;5038;53.064;8.624;2022-07-23T05:42:37;8.77;;;8.00;;
9997;SDS011;5038;53.064;8.624;2022-07-23T05:45:07;10.60;;;7.93;;
9997;SDS011;5038;53.064;8.624;2022-07-23T05:47:47;12.17;;;7.77;;
9997;SDS011;5038;53.064;8.624;2022-07-23T05:50:25;8.60;;;7.60;;
9997;SDS011;5038;53.064;8.624;2022-07-23T05:53:00;8.90;;;8.00;;
9997;SDS011;5038;53.064;8.624;2022-07-23T05:55:28;8.43;;;7.50;;
9997;SDS011;5038;53.064;8.624;2022-07-23T05:57:58;9.63;;;6.60;;
9997;SDS011;5038;53.064;8.624;2022-07-23T06:00:27;8.27;;;7.47;;
9997;SDS011;5038;53.064;8.624;2022-07-23T06:02:57;9.67;;;7.27;;
9997;SDS011;5038;53.064;8.624;2022-07-23T06:05:28;7.97;;;7.03;;
9997;SDS011;5038;53.064;8.624;2022-07-23T06:07:57;12.23;;;7.47;;
9997;SDS011;5038;53.064;8.624;2022-07-23T06:10:26;6.87;;;6.27;;
9997;SDS011;5038;53.064;8.624;2022-07-23T06:12:54;8.17;;;6.90;;
9997;SDS011;5038;53.064;8.624;2022-07-23T06:15:28;7.20;;;6.53;;
9997;SDS011;5038;53.064;8.624;2022-07-23T06:17:58;8.57;;;6.10;;
9997;SDS011;5038;53.064;8.624;2022-07-23T06:20:26;6.13;;;5.53;;
9997;SDS011;5038;53.064;8.624;2022-07-23T06:22:56;6.43;;;5.63;;
9997;SDS011;5038;53.064;8.624;2022-07-23T06:25:25;5.90;;;5.30;;
9997;SDS011;5038;53.064;8.624;2022-07-23T06:27:53;8.67;;;5.20;;
9997;SDS011;5038;53.064;8.624;2022-07-23T06:30:21;6.13;;;4.23;;
9997;SDS011;5038;53.064;8.624;2022-07-23T06:32:50;4.97;;;4.47;;
9997;SDS011;5038;53.064;8.624;2022-07-23T06:35:20;4.97;;;3.70;;
9997;SDS011;5038;53.064;8.624;2022-07-23T06:37:48;6.00;;;3.57;;
9997;SDS011;5038;53.064;8.624;2022-07-23T06:40:16;3.80;;;2.87;;
9997;SDS011;5038;53.064;8.624;2022-07-23T06:42:45;3.60;;;2.37;;
9997;SDS011;5038;53.064;8.624;2022-07-23T06:45:21;9.93;;;3.10;;
9997;SDS011;5038;53.064;8.624;2022-07-23T06:47:49;3.97;;;2.77;;
9997;SDS011;5038;53.064;8.624;2022-07-23T06:50:17;3.30;;;2.37;;
9997;SDS011;5038;53.064;8.624;2022-07-23T06:52:48;3.97;;;2.40;;
9997;SDS011;5038;53.064;8.624;2022-07-23T06:55:16;4.27;;;2.37;;
9997;SDS011;5038;53.064;8.624;2022-07-23T06:57:44;2.90;;;2.27;;
9997;SDS011;5038;53.064;8.624;2022-07-23T07:00:13;2.43;;;2.20;;
9997;SDS011;5038;53.064;8.624;2022-07-23T07:02:41;4.87;;;2.10;;
9997;SDS011;5038;53.064;8.624;2022-07-23T07:05:10;4.47;;;2.57;;
9997;SDS011;5038;53.064;8.624;2022-07-23T07:07:39;6.13;;;3.33;;
9997;SDS011;5038;53.064;8.624;2022-07-23T07:10:08;4.87;;;2.30;;
9997;SDS011;5038;53.064;8.624;2022-07-23T07:12:41;3.37;;;2.40;;
9997;SDS011;5038;53.064;8.624;2022-07-23T07:15:09;7.87;;;2.57;;
9997;SDS011;5038;53.064;8.624;2022-07-23T07:17:38;4.60;;;2.30;;
9997;SDS011;5038;53.064;8.624;2022-07-23T07:20:07;3.63;;;2.50;;
9997;SDS011;5038;53.064;8.624;2022-07-23T07:22:36;3.07;;;2.13;;
9997;SDS011;5038;53.064;8.624;2022-07-23T07:25:06;2.67;;;2.00;;
9997;SDS011;5038;53.064;8.624;2022-07-23T07:27:35;3.03;;;1.90;;
9997;SDS011;5038;53.064;8.624;2022-07-23T07:30:04;4.77;;;2.77;;
9997;SDS011;5038;53.064;8.624;2022-07-23T07:32:33;4.47;;;3.30;;
9997;SDS011;5038;53.064;8.624;2022-07-23T07:35:23;6.50;;;2.83;;
9997;SDS011;5038;53.064;8.624;2022-07-23T07:37:51;3.63;;;2.43;;
9997;SDS011;5038;53.064;8.624;2022-07-23T07:40:21;5.17;;;2.80;;
9997;SDS011;5038;53.064;8.624;2022-07-23T07:42:50;3.57;;;2.50;;
9997;SDS011;5038;53.064;8.624;2022-07-23T07:45:20;7.67;;;3.10;;
9997;SDS011;5038;53.064;8.624;2022-07-23T07:47:49;3.27;;;2.60;;
9997;SDS011;5038;53.064;8.624;2022-07-23T07:50:17;3.80;;;2.20;;
9997;SDS011;5038;53.064;8.624;2022-07-23T07:52:47;4.27;;;2.10;;
9997;SDS011;5038;53.064;8.624;2022-07-23T07:55:15;2.93;;;2.23;;
9997;SDS011;5038;53.064;8.624;2022-07-23T07:57:45;4.03;;;2.10;;
9997;SDS011;5038;53.064;8.624;2022-07-23T08:00:15;4.37;;;2.10;;
9997;SDS011;5038;53.064;8.624;2022-07-23T08:02:45;3.60;;;2.40;;
9997;SDS011;5038;53.064;8.624;2022-07-23T08:05:18;3.17;;;1.70;;
9997;SDS011;5038;53.064;8.624;2022-07-23T08:07:53;2.57;;;1.80;;
9997;SDS011;5038;53.064;8.624;2022-07-23T08:10:21;3.17;;;2.10;;
9997;SDS011;5038;53.064;8.624;2022-07-23T08:12:52;3.40;;;2.10;;
9997;SDS011;5038;53.064;8.624;2022-07-23T08:15:23;3.43;;;2.37;;
9997;SDS011;5038;53.064;8.624;2022-07-23T08:17:53;3.97;;;1.67;;
9997;SDS011;5038;53.064;8.624;2022-07-23T08:20:23;2.70;;;1.80;;
9997;SDS011;5038;53.064;8.624;2022-07-23T08:22:55;3.73;;;1.77;;
9997;SDS011;5038;53.064;8.624;2022-07-23T08:25:25;3.60;;;1.93;;
9997;SDS011;5038;53.064;8.624;2022-07-23T08:27:57;3.30;;;1.63;;
9997;SDS011;5038;53.064;8.624;2022-07-23T08:30:26;4.13;;;2.37;;
9997;SDS011;5038;53.064;8.624;2022-07-23T08:32:55;3.40;;;2.07;;
9997;SDS011;5038;53.064;8.624;2022-07-23T08:35:27;5.67;;;2.27;;
9997;SDS011;5038;53.064;8.624;2022-07-23T08:37:57;3.10;;;2.00;;
9997;SDS011;5038;53.064;8.624;2022-07-23T08:40:27;3.17;;;2.30;;
9997;SDS011;5038;53.064;8.624;2022-07-23T08:42:58;6.13;;;1.80;;
9997;SDS011;5038;53.064;8.624;2022-07-23T08:45:27;2.50;;;2.10;;
9997;SDS011;5038;53.064;8.624;2022-07-23T08:47:56;4.20;;;2.60;;
9997;SDS011;5038;53.064;8.624;2022-07-23T08:50:28;5.73;;;2.63;;
9997;SDS011;5038;53.064;8.624;2022-07-23T08:52:57;3.20;;;2.13;;
9997;SDS011;5038;53.064;8.624;2022-07-23T08:55:29;2.50;;;2.13;;
9997;SDS011;5038;53.064;8.624;2022-07-23T08:57:58;4.23;;;2.63;;
9997;SDS011;5038;53.064;8.624;2022-07-23T09:00:26;2.67;;;2.30;;
9997;SDS011;5038;53.064;8.624;2022-07-23T09:02:55;3.17;;;1.80;;
9997;SDS011;5038;53.064;8.624;2022-07-23T09:05:23;3.00;;;2.10;;
9997;SDS011;5038;53.064;8.624;2022-07-23T09:10:43;3.03;;;1.40;;
9997;SDS011;5038;53.064;8.624;2022-07-23T09:13:30;1.87;;;1.10;;
9997;SDS011;5038;53.064;8.624;2022-07-23T09:16:01;2.23;;;1.30;;
9997;SDS011;5038;53.064;8.624;2022-07-23T09:18:31;2.40;;;0.93;;
9997;SDS011;5038;53.064;8.624;2022-07-23T09:21:17;1.60;;;0.90;;
9997;SDS011;5038;53.064;8.624;2022-07-23T09:23:52;3.57;;;1.07;;
9997;SDS011;5038;53.064;8.624;2022-07-23T09:26:29;1.73;;;1.00;;
9997;SDS011;5038;53.064;8.624;2022-07-23T09:29:05;1.83;;;1.00;;
9997;SDS011;5038;53.064;8.624;2022-07-23T09:31:42;1.60;;;1.00;;
9997;SDS011;5038;53.064;8.624;2022-07-23T09:34:13;1.83;;;1.17;;
9997;SDS011;5038;53.064;8.624;2022-07-23T09:36:44;2.10;;;0.90;;
9997;SDS011;5038;53.064;8.624;2022-07-23T09:39:14;3.00;;;1.13;;
9997;SDS011;5038;53.064;8.624;2022-07-23T09:41:44;1.70;;;1.10;;
9997;SDS011;5038;53.064;8.624;2022-07-23T09:44:15;3.30;;;1.30;;
9997;SDS011;5038;53.064;8.624;2022-07-23T09:46:49;1.90;;;0.93;;
9997;SDS011;5038;53.064;8.624;2022-07-23T09:49:19;2.20;;;1.17;;
9997;SDS011;5038;53.064;8.624;2022-07-23T09:51:51;3.00;;;1.30;;
9997;SDS011;5038;53.064;8.624;2022-07-23T09:54:22;2.33;;;1.17;;
9997;SDS011;5038;53.064;8.624;2022-07-23T09:56:53;3.00;;;1.00;;
9997;SDS011;5038;53.064;8.624;2022-07-23T09:59:24;2.00;;;1.20;;
9997;SDS011;5038;53.064;8.624;2022-07-23T10:01:54;2.30;;;1.40;;
9997;SDS011;5038;53.064;8.624;2022-07-23T10:04:26;3.27;;;1.17;;
9997;SDS011;5038;53.064;8.624;2022-07-23T10:07:32;2.10;;;1.67;;
9997;SDS011;5038;53.064;8.624;2022-07-23T10:10:22;1.50;;;0.90;;
9997;SDS011;5038;53.064;8.624;2022-07-23T10:13:16;3.47;;;1.30;;
9997;SDS011;5038;53.064;8.624;2022-07-23T10:16:05;1.60;;;1.00;;
9997;SDS011;5038;53.064;8.624;2022-07-23T10:18:35;2.47;;;1.00;;
9997;SDS011;5038;53.064;8.624;2022-07-23T10:21:10;1.63;;;1.00;;
9997;SDS011;5038;53.064;8.624;2022-07-23T10:23:40;4.77;;;1.90;;
9997;SDS011;5038;53.064;8.624;2022-07-23T10:26:16;3.10;;;0.90;;
9997;SDS011;5038;53.064;8.624;2022-07-23T10:29:01;1.50;;;1.17;;
9997;SDS011;5038;53.064;8.624;2022-07-23T10:31:41;2.27;;;1.23;;
9997;SDS011;5038;53.064;8.624;2022-07-23T10:34:32;2.03;;;1.07;;
9997;SDS011;5038;53.064;8.624;2022-07-23T10:37:12;1.83;;;0.97;;
9997;SDS011;5038;53.064;8.624;2022-07-23T10:39:47;2.60;;;1.00;;
9997;SDS011;5038;53.064;8.624;2022-07-23T10:42:16;2.00;;;1.07;;
9997;SDS011;5038;53.064;8.624;2022-07-23T10:44:45;2.33;;;1.33;;
9997;SDS011;5038;53.064;8.624;2022-07-23T10:47:25;2.23;;;1.10;;
9997;SDS011;5038;53.064;8.624;2022-07-23T10:50:19;2.33;;;1.10;;
9997;SDS011;5038;53.064;8.624;2022-07-23T10:55:45;1.73;;;0.90;;
9997;SDS011;5038;53.064;8.624;2022-07-23T10:58:19;4.30;;;1.00;;
9997;SDS011;5038;53.064;8.624;2022-07-23T11:00:49;2.50;;;0.80;;
9997;SDS011;5038;53.064;8.624;2022-07-23T11:03:29;2.13;;;1.00;;
9997;SDS011;5038;53.064;8.624;2022-07-23T11:06:02;2.40;;;0.90;;
9997;SDS011;5038;53.064;8.624;2022-07-23T11:08:31;1.70;;;0.83;;
9997;SDS011;5038;53.064;8.624;2022-07-23T11:11:09;2.37;;;1.20;;
9997;SDS011;5038;53.064;8.624;2022-07-23T11:13:42;2.43;;;1.03;;
9997;SDS011;5038;53.064;8.624;2022-07-23T11:16:16;1.90;;;1.20;;
9997;SDS011;5038;53.064;8.624;2022-07-23T11:21:41;1.50;;;1.10;;
9997;SDS011;5038;53.064;8.624;2022-07-23T11:24:12;1.90;;;1.00;;
9997;SDS011;5038;53.064;8.624;2022-07-23T11:26:45;1.73;;;0.83;;
9997;SDS011;5038;53.064;8.624;2022-07-23T11:32:19;3.70;;;1.20;;
9997;SDS011;5038;53.064;8.624;2022-07-23T11:34:57;2.63;;;1.50;;
9997;SDS011;5038;53.064;8.624;2022-07-23T11:37:31;1.87;;;1.20;;
9997;SDS011;5038;53.064;8.624;2022-07-23T11:40:02;2.33;;;1.00;;
9997;SDS011;5038;53.064;8.624;2022-07-23T11:42:33;2.33;;;1.20;;
9997;SDS011;5038;53.064;8.624;2022-07-23T11:45:02;1.70;;;1.20;;
9997;SDS011;5038;53.064;8.624;2022-07-23T11:47:32;2.73;;;1.53;;
9997;SDS011;5038;53.064;8.624;2022-07-23T11:50:02;2.10;;;1.20;;
9997;SDS011;5038;53.064;8.624;2022-07-23T11:52:33;2.13;;;1.23;;
9997;SDS011;5038;53.064;8.624;2022-07-23T11:55:02;1.40;;;0.93;;
9997;SDS011;5038;53.064;8.624;2022-07-23T11:57:33;1.60;;;0.80;;
9997;SDS011;5038;53.064;8.624;2022-07-23T12:00:04;1.97;;;1.10;;
9997;SDS011;5038;53.064;8.624;2022-07-23T12:02:38;1.60;;;0.83;;
9997;SDS011;5038;53.064;8.624;2022-07-23T12:05:09;1.60;;;0.90;;
9997;SDS011;5038;53.064;8.624;2022-07-23T12:07:40;1.40;;;0.83;;
9997;SDS011;5038;53.064;8.624;2022-07-23T12:10:12;1.60;;;1.00;;
9997;SDS011;5038;53.064;8.624;2022-07-23T12:12:43;2.87;;;0.90;;
9997;SDS011;5038;53.064;8.624;2022-07-23T12:15:16;1.40;;;0.80;;
9997;SDS011;5038;53.064;8.624;2022-07-23T12:17:48;1.30;;;0.80;;
9997;SDS011;5038;53.064;8.624;2022-07-23T12:20:20;1.60;;;0.80;;
9997;SDS011;5038;53.064;8.624;2022-07-23T12:22:50;1.70;;;0.80;;
9997;SDS011;5038;53.064;8.624;2022-07-23T12:25:20;1.87;;;1.20;;
9997;SDS011;5038;53.064;8.624;2022-07-23T12:27:58;3.60;;;1.10;;
9997;SDS011;5038;53.064;8.624;2022-07-23T12:30:28;1.73;;;1.00;;
9997;SDS011;5038;53.064;8.624;2022-07-23T12:33:00;1.80;;;0.90;;
9997;SDS011;5038;53.064;8.624;2022-07-23T12:35:33;2.30;;;1.00;;
9997;SDS011;5038;53.064;8.624;2022-07-23T12:38:05;2.20;;;1.20;;
9997;SDS011;5038;53.064;8.624;2022-07-23T12:40:35;1.83;;;1.00;;
9997;SDS011;5038;53.064;8.624;2022-07-23T12:43:06;2.60;;;0.90;;
9997;SDS011;5038;53.064;8.624;2022-07-23T12:45:46;2.03;;;1.00;;
9997;SDS011;5038;53.064;8.624;2022-07-23T12:48:17;6.03;;;0.93;;
9997;SDS011;5038;53.064;8.624;2022-07-23T12:50:50;1.93;;;1.10;;
9997;SDS011;5038;53.064;8.624;2022-07-23T12:53:21;2.33;;;1.00;;
9997;SDS011;5038;53.064;8.624;2022-07-23T12:55:56;2.70;;;1.20;;
9997;SDS011;5038;53.064;8.624;2022-07-23T12:58:42;3.20;;;1.30;;
9997;SDS011;5038;53.064;8.624;2022-07-23T13:01:26;8.07;;;1.73;;
9997;SDS011;5038;53.064;8.624;2022-07-23T13:03:56;2.17;;;1.90;;
9997;SDS011;5038;53.064;8.624;2022-07-23T13:06:29;3.67;;;1.00;;
9997;SDS011;5038;53.064;8.624;2022-07-23T13:08:58;2.47;;;1.10;;
9997;SDS011;5038;53.064;8.624;2022-07-23T13:11:28;1.60;;;1.00;;
9997;SDS011;5038;53.064;8.624;2022-07-23T13:13:56;1.63;;;1.00;;
9997;SDS011;5038;53.064;8.624;2022-07-23T13:16:26;2.77;;;1.07;;
9997;SDS011;5038;53.064;8.624;2022-07-23T13:18:55;1.93;;;1.03;;
9997;SDS011;5038;53.064;8.624;2022-07-23T13:21:25;3.10;;;1.10;;
9997;SDS011;5038;53.064;8.624;2022-07-23T13:23:55;1.50;;;1.00;;
9997;SDS011;5038;53.064;8.624;2022-07-23T13:26:24;1.80;;;0.90;;
9997;SDS011;5038;53.064;8.624;2022-07-23T13:28:53;2.40;;;1.17;;
9997;SDS011;5038;53.064;8.624;2022-07-23T13:31:21;1.60;;;1.00;;
9997;SDS011;5038;53.064;8.624;2022-07-23T13:33:50;2.60;;;1.33;;
9997;SDS011;5038;53.064;8.624;2022-07-23T13:36:18;2.40;;;1.43;;
9997;SDS011;5038;53.064;8.624;2022-07-23T13:38:46;2.03;;;1.00;;
9997;SDS011;5038;53.064;8.624;2022-07-23T13:41:17;1.90;;;1.03;;
9997;SDS011;5038;53.064;8.624;2022-07-23T13:43:45;1.87;;;1.03;;
9997;SDS011;5038;53.064;8.624;2022-07-23T13:46:14;2.70;;;1.10;;
9997;SDS011;5038;53.064;8.624;2022-07-23T13:48:42;2.60;;;1.10;;
9997;SDS011;5038;53.064;8.624;2022-07-23T13:51:10;4.63;;;1.20;;
9997;SDS011;5038;53.064;8.624;2022-07-23T13:53:39;1.70;;;1.10;;
9997;SDS011;5038;53.064;8.624;2022-07-23T13:56:07;1.40;;;0.80;;
9997;SDS011;5038;53.064;8.624;2022-07-23T13:58:37;2.33;;;1.10;;
9997;SDS011;5038;53.064;8.624;2022-07-23T14:01:06;3.70;;;1.30;;
9997;SDS011;5038;53.064;8.624;2022-07-23T14:03:35;2.30;;;1.13;;
9997;SDS011;5038;53.064;8.624;2022-07-23T14:06:03;3.03;;;1.10;;
9997;SDS011;5038;53.064;8.624;2022-07-23T14:08:41;2.00;;;1.20;;
9997;SDS011;5038;53.064;8.624;2022-07-23T14:11:10;2.13;;;1.30;;
9997;SDS011;5038;53.064;8.624;2022-07-23T14:13:40;2.03;;;1.00;;
9997;SDS011;5038;53.064;8.624;2022-07-23T14:16:09;1.80;;;0.93;;
9997;SDS011;5038;53.064;8.624;2022-07-23T14:18:37;2.03;;;1.00;;
9997;SDS011;5038;53.064;8.624;2022-07-23T14:21:06;2.73;;;1.40;;
9997;SDS011;5038;53.064;8.624;2022-07-23T14:23:34;2.07;;;1.43;;
9997;SDS011;5038;53.064;8.624;2022-07-23T14:26:04;2.10;;;1.20;;
9997;SDS011;5038;53.064;8.624;2022-07-23T14:28:33;2.40;;;1.23;;
9997;SDS011;5038;53.064;8.624;2022-07-23T14:31:03;2.23;;;1.30;;
9997;SDS011;5038;53.064;8.624;2022-07-23T14:33:45;1.70;;;1.10;;
9997;SDS011;5038;53.064;8.624;2022-07-23T14:36:14;2.03;;;1.23;;
9997;SDS011;5038;53.064;8.624;2022-07-23T14:38:42;2.07;;;1.10;;
9997;SDS011;5038;53.064;8.624;2022-07-23T14:41:11;2.23;;;1.40;;
9997;SDS011;5038;53.064;8.624;2022-07-23T14:43:41;2.43;;;1.30;;
9997;SDS011;5038;53.064;8.624;2022-07-23T14:46:11;1.57;;;1.00;;
9997;SDS011;5038;53.064;8.624;2022-07-23T14:48:40;2.10;;;1.10;;
9997;SDS011;5038;53.064;8.624;2022-07-23T14:51:09;1.90;;;1.07;;
9997;SDS011;5038;53.064;8.624;2022-07-23T14:53:37;2.37;;;1.30;;
9997;SDS011;5038;53.064;8.624;2022-07-23T14:56:06;2.23;;;1.20;;
9997;SDS011;5038;53.064;8.624;2022-07-23T14:58:34;2.40;;;1.20;;
9997;SDS011;5038;53.064;8.624;2022-07-23T15:01:03;2.17;;;1.20;;
9997;SDS011;5038;53.064;8.624;2022-07-23T15:03:33;2.43;;;1.30;;
9997;SDS011;5038;53.064;8.624;2022-07-23T15:06:08;1.90;;;1.10;;
9997;SDS011;5038;53.064;8.624;2022-07-23T15:08:38;1.60;;;1.10;;
9997;SDS011;5038;53.064;8.624;2022-07-23T15:11:06;1.80;;;1.10;;
9997;SDS011;5038;53.064;8.624;2022-07-23T15:13:36;1.63;;;1.07;;
9997;SDS011;5038;53.064;8.624;2022-07-23T15:16:05;2.10;;;1.40;;
9997;SDS011;5038;53.064;8.624;2022-07-23T15:18:37;2.23;;;1.33;;
9997;SDS011;5038;53.064;8.624;2022-07-23T15:21:05;2.30;;;1.40;;
9997;SDS011;5038;53.064;8.624;2022-07-23T15:23:35;1.50;;;1.03;;
9997;SDS011;5038;53.064;8.624;2022-07-23T15:26:06;2.00;;;1.30;;
9997;SDS011;5038;53.064;8.624;2022-07-23T15:28:35;2.13;;;1.30;;
9997;SDS011;5038;53.064;8.624;2022-07-23T15:31:04;1.80;;;1.50;;
9997;SDS011;5038;53.064;8.624;2022-07-23T15:33:34;2.77;;;1.50;;
9997;SDS011;5038;53.064;8.624;2022-07-23T15:36:05;2.73;;;1.20;;
9997;SDS011;5038;53.064;8.624;2022-07-23T15:38:36;2.40;;;1.30;;
9997;SDS011;5038;53.064;8.624;2022-07-23T15:41:04;1.70;;;1.23;;
9997;SDS011;5038;53.064;8.624;2022-07-23T15:43:34;2.77;;;1.57;;
9997;SDS011;5038;53.064;8.624;2022-07-23T15:46:03;2.30;;;1.53;;
9997;SDS011;5038;53.064;8.624;2022-07-23T15:48:35;3.57;;;1.40;;